createdAt,value
2018-07-23T00:00:51.682Z,7.63
2018-07-23T00:03:21.289Z,7.67
2018-07-23T00:05:50.886Z,6.67
2018-07-23T00:08:20.519Z,7.63
2018-07-23T00:10:50.211Z,7.43
2018-07-23T00:13:19.907Z,7.93
2018-07-23T00:15:49.552Z,7.80
2018-07-23T00:18:19.196Z,8.03
2018-07-23T00:20:48.861Z,8.50
2018-07-23T00:23:18.462Z,9.20
2018-07-23T00:25:48.090Z,9.13
2018-07-23T00:28:17.728Z,9.40
2018-07-23T00:30:47.346Z,9.40
2018-07-23T00:33:17.042Z,9.60
2018-07-23T00:35:46.652Z,9.53
2018-07-23T00:38:16.254Z,9.57
2018-07-23T00:40:45.867Z,10.23
2018-07-23T00:43:15.465Z,10.33
2018-07-23T00:45:45.103Z,9.60
2018-07-23T00:48:14.729Z,10.03
2018-07-23T00:50:44.360Z,9.80
2018-07-23T00:53:13.982Z,10.13
2018-07-23T00:55:43.242Z,11.00
2018-07-23T00:58:12.861Z,9.93
2018-07-23T01:00:43.237Z,10.67
2018-07-23T01:03:12.850Z,10.73
2018-07-23T01:05:42.421Z,10.47
2018-07-23T01:08:12.035Z,10.87
2018-07-23T01:10:41.625Z,9.83
2018-07-23T01:13:12.121Z,9.97
2018-07-23T01:15:42.895Z,9.00
2018-07-23T01:18:12.535Z,9.40
2018-07-23T01:20:42.217Z,10.27
2018-07-23T01:23:11.859Z,13.27
2018-07-23T01:25:41.553Z,10.77
2018-07-23T01:28:11.141Z,11.23
2018-07-23T01:30:42.346Z,11.97
2018-07-23T01:33:11.993Z,12.63
2018-07-23T01:35:41.672Z,12.07
2018-07-23T01:38:11.336Z,13.27
2018-07-23T01:40:41.035Z,16.03
2018-07-23T01:43:10.667Z,16.20
2018-07-23T01:45:41.524Z,12.10
2018-07-23T01:48:11.165Z,12.17
2018-07-23T01:50:41.134Z,12.47
2018-07-23T01:53:10.847Z,13.27
2018-07-23T01:55:40.680Z,11.40
2018-07-23T01:58:10.360Z,13.13
2018-07-23T02:00:42.493Z,13.87
2018-07-23T02:03:12.180Z,15.57
2018-07-23T02:05:41.811Z,16.57
2018-07-23T02:08:11.417Z,17.67
2018-07-23T02:10:42.278Z,17.23
2018-07-23T02:13:11.626Z,18.60
2018-07-23T02:15:43.384Z,19.13
2018-07-23T02:18:13.077Z,21.57
2018-07-23T02:20:43.230Z,17.97
2018-07-23T02:23:12.862Z,23.10
2018-07-23T02:25:42.499Z,26.60
2018-07-23T02:28:12.198Z,32.67
2018-07-23T02:30:42.563Z,31.60
2018-07-23T02:33:12.161Z,35.00
2018-07-23T02:35:41.740Z,30.77
2018-07-23T02:38:11.340Z,30.40
2018-07-23T02:40:40.993Z,26.93
2018-07-23T02:43:11.487Z,26.80
2018-07-23T02:45:42.116Z,26.27
2018-07-23T02:48:11.736Z,24.20
2018-07-23T02:50:41.440Z,22.77
2018-07-23T02:53:11.100Z,23.50
2018-07-23T02:55:40.724Z,21.97
2018-07-23T02:58:10.322Z,21.10
2018-07-23T03:00:40.627Z,22.27
2018-07-23T03:03:10.562Z,20.20
2018-07-23T03:05:40.152Z,19.90
2018-07-23T03:08:09.785Z,18.23
2018-07-23T03:10:40.336Z,18.07
2018-07-23T03:13:09.925Z,17.57
2018-07-23T03:15:40.512Z,16.30
2018-07-23T03:18:10.122Z,16.93
2018-07-23T03:20:39.975Z,14.93
2018-07-23T03:23:09.593Z,15.47
2018-07-23T03:25:39.817Z,15.40
2018-07-23T03:28:09.438Z,13.40
2018-07-23T03:30:41.618Z,13.90
2018-07-23T03:33:11.253Z,14.40
2018-07-23T03:35:40.869Z,14.77
2018-07-23T03:38:10.508Z,13.70
2018-07-23T03:40:40.479Z,13.27
2018-07-23T03:43:10.310Z,13.47
2018-07-23T03:45:42.525Z,12.37
2018-07-23T03:48:12.234Z,12.87
2018-07-23T03:50:41.827Z,12.10
2018-07-23T03:53:11.488Z,11.30
2018-07-23T03:55:41.316Z,11.97
2018-07-23T03:58:10.890Z,11.93
2018-07-23T04:00:42.389Z,12.23
2018-07-23T04:03:11.991Z,12.27
2018-07-23T04:05:41.749Z,11.20
2018-07-23T04:08:11.317Z,12.23
2018-07-23T04:10:42.081Z,11.60
2018-07-23T04:13:11.972Z,12.30
2018-07-23T04:15:43.499Z,12.00
2018-07-23T04:18:13.097Z,12.27
2018-07-23T04:20:43.012Z,13.57
2018-07-23T04:23:12.608Z,12.60
2018-07-23T04:25:42.981Z,11.40
2018-07-23T04:28:12.625Z,12.70
2018-07-23T04:30:43.983Z,12.33
2018-07-23T04:33:13.585Z,12.73
2018-07-23T04:35:44.771Z,11.60
2018-07-23T04:38:14.364Z,11.33
2018-07-23T04:40:44.745Z,11.63
2018-07-23T04:43:14.336Z,11.27
2018-07-23T04:45:45.045Z,12.07
2018-07-23T04:48:14.668Z,11.73
2018-07-23T04:50:44.474Z,11.33
2018-07-23T04:53:14.190Z,11.60
2018-07-23T04:55:44.346Z,11.83
2018-07-23T04:58:13.896Z,11.30
2018-07-23T05:00:44.599Z,11.70
2018-07-23T05:03:14.221Z,12.77
2018-07-23T05:05:44.941Z,11.27
2018-07-23T05:08:14.573Z,11.70
2018-07-23T05:10:45.104Z,11.67
2018-07-23T05:13:14.794Z,12.70
2018-07-23T05:15:45.265Z,11.63
2018-07-23T05:18:14.920Z,11.70
2018-07-23T05:20:45.048Z,12.20
2018-07-23T05:23:14.698Z,10.70
2018-07-23T05:25:45.107Z,11.03
2018-07-23T05:28:14.706Z,10.90
2018-07-23T05:30:45.063Z,11.10
2018-07-23T05:33:14.788Z,11.33
2018-07-23T05:35:45.012Z,11.60
2018-07-23T05:38:14.691Z,11.80
2018-07-23T05:40:45.103Z,12.10
2018-07-23T05:43:14.773Z,12.13
2018-07-23T05:45:45.218Z,12.13
2018-07-23T05:48:14.894Z,10.97
2018-07-23T05:50:45.098Z,10.80
2018-07-23T05:53:14.750Z,11.10
2018-07-23T05:55:44.832Z,11.20
2018-07-23T05:58:14.452Z,11.23
2018-07-23T06:00:44.433Z,9.70
2018-07-23T06:03:13.690Z,10.47
2018-07-23T06:05:43.625Z,10.57
2018-07-23T06:08:13.215Z,9.50
2018-07-23T06:10:42.857Z,9.93
2018-07-23T06:13:12.513Z,9.90
2018-07-23T06:15:43.314Z,9.60
2018-07-23T06:18:12.570Z,10.10
2018-07-23T06:20:42.186Z,9.17
2018-07-23T06:23:11.856Z,9.17
2018-07-23T06:25:41.509Z,9.50
2018-07-23T06:28:11.198Z,9.50
2018-07-23T06:30:47.252Z,9.60
2018-07-23T06:33:16.874Z,9.63
2018-07-23T06:35:46.882Z,9.90
2018-07-23T06:38:17.734Z,9.43
2018-07-23T06:40:47.812Z,8.33
2018-07-23T06:43:17.499Z,8.17
2018-07-23T06:45:47.984Z,9.10
2018-07-23T06:48:18.384Z,9.77
2018-07-23T06:50:48.922Z,9.40
2018-07-23T06:53:18.535Z,8.10
2018-07-23T06:55:49.076Z,8.30
2018-07-23T06:58:19.539Z,8.33
2018-07-23T07:00:49.680Z,8.30
2018-07-23T07:03:19.333Z,8.17
2018-07-23T07:05:49.819Z,8.00
2018-07-23T07:08:19.503Z,8.90
2018-07-23T07:10:49.895Z,9.17
2018-07-23T07:13:19.588Z,9.07
2018-07-23T07:15:50.136Z,8.33
2018-07-23T07:18:19.913Z,8.07
2018-07-23T07:20:50.272Z,8.33
2018-07-23T07:23:19.959Z,8.17
2018-07-23T07:25:50.395Z,8.37
2018-07-23T07:28:21.158Z,8.27
2018-07-23T07:30:51.617Z,8.20
2018-07-23T07:33:21.210Z,8.20
2018-07-23T07:35:51.502Z,8.73
2018-07-23T07:38:21.150Z,8.23
2018-07-23T07:40:51.383Z,8.23
2018-07-23T07:43:21.045Z,8.80
2018-07-23T07:45:51.067Z,7.90
2018-07-23T07:48:20.638Z,8.30
2018-07-23T07:50:50.619Z,8.73
2018-07-23T07:53:20.259Z,8.30
2018-07-23T07:55:50.555Z,8.73
2018-07-23T07:58:20.455Z,9.33
2018-07-23T08:00:50.718Z,9.67
2018-07-23T08:03:20.981Z,8.87
2018-07-23T08:05:51.010Z,8.90
2018-07-23T08:08:31.777Z,8.90
2018-07-23T08:11:10.097Z,8.77
2018-07-23T08:13:51.694Z,8.67
2018-07-23T08:16:32.697Z,7.87
2018-07-23T08:19:09.353Z,7.83
2018-07-23T08:21:51.798Z,7.13
2018-07-23T08:24:33.629Z,7.10
2018-07-23T08:27:16.219Z,7.20
2018-07-23T08:29:55.620Z,6.50
2018-07-23T08:32:36.360Z,6.23
2018-07-23T08:35:20.763Z,6.20
2018-07-23T08:37:58.406Z,6.67
2018-07-23T08:40:28.265Z,6.20
2018-07-23T08:43:07.755Z,5.47
2018-07-23T08:45:48.124Z,5.50
2018-07-23T08:48:18.000Z,5.77
2018-07-23T08:50:47.640Z,5.30
2018-07-23T08:53:17.383Z,5.03
2018-07-23T08:55:47.008Z,5.17
2018-07-23T08:58:16.713Z,4.70
2018-07-23T09:00:46.302Z,4.20
2018-07-23T09:03:15.872Z,4.63
2018-07-23T09:05:45.135Z,4.17
2018-07-23T09:08:14.706Z,4.20
2018-07-23T09:10:44.316Z,3.87
2018-07-23T09:13:14.045Z,3.60
2018-07-23T09:15:44.540Z,3.60
2018-07-23T09:18:14.244Z,3.53
2018-07-23T09:20:44.173Z,3.50
2018-07-23T09:23:13.802Z,3.70
2018-07-23T09:25:46.826Z,3.60
2018-07-23T09:28:18.127Z,3.40
2018-07-23T09:30:51.378Z,3.17
2018-07-23T09:33:22.337Z,3.27
2018-07-23T09:35:52.691Z,2.40
2018-07-23T09:38:23.075Z,2.50
2018-07-23T09:40:53.153Z,2.87
2018-07-23T09:43:22.745Z,2.90
2018-07-23T09:45:52.312Z,2.60
2018-07-23T09:48:21.871Z,3.03
2018-07-23T09:50:51.425Z,2.50
2018-07-23T09:53:21.050Z,2.43
2018-07-23T09:55:50.601Z,2.80
2018-07-23T09:58:20.181Z,2.13
2018-07-23T10:00:54.662Z,2.10
2018-07-23T10:03:24.420Z,2.60
2018-07-23T10:05:54.010Z,2.30
2018-07-23T10:08:23.609Z,2.13
2018-07-23T10:10:53.273Z,2.50
2018-07-23T10:13:22.812Z,2.10
2018-07-23T10:15:52.418Z,2.50
2018-07-23T10:18:21.974Z,2.60
2018-07-23T10:20:51.527Z,2.33
2018-07-23T10:23:21.198Z,2.40
2018-07-23T10:25:50.787Z,2.20
2018-07-23T10:28:20.364Z,2.23
2018-07-23T10:30:49.928Z,2.20
2018-07-23T10:33:19.531Z,2.30
2018-07-23T10:35:49.088Z,2.30
2018-07-23T10:38:18.710Z,2.13
2018-07-23T10:40:48.269Z,2.10
2018-07-23T10:43:17.923Z,2.10
2018-07-23T10:45:47.531Z,2.10
2018-07-23T10:48:17.227Z,2.40
2018-07-23T10:50:46.790Z,1.90
2018-07-23T10:53:16.415Z,2.13
2018-07-23T10:55:46.092Z,2.03
2018-07-23T10:58:15.797Z,1.80
2018-07-23T11:00:45.377Z,2.10
2018-07-23T11:03:15.018Z,2.00
2018-07-23T11:05:44.602Z,2.40
2018-07-23T11:08:14.287Z,2.20
2018-07-23T11:10:43.855Z,2.17
2018-07-23T11:13:13.434Z,1.70
2018-07-23T11:15:43.551Z,2.00
2018-07-23T11:18:13.238Z,2.07
2018-07-23T11:20:42.847Z,1.80
2018-07-23T11:23:12.426Z,2.40
2018-07-23T11:25:42.055Z,2.17
2018-07-23T11:28:11.648Z,2.27
2018-07-23T11:30:42.666Z,2.00
2018-07-23T11:33:13.024Z,2.10
2018-07-23T11:35:42.672Z,1.70
2018-07-23T11:38:12.270Z,1.90
2018-07-23T11:40:41.856Z,1.87
2018-07-23T11:43:11.462Z,2.03
2018-07-23T11:45:42.560Z,2.20
2018-07-23T11:48:12.126Z,2.00
2018-07-23T11:50:41.787Z,1.80
2018-07-23T11:53:11.359Z,2.30
2018-07-23T11:55:49.808Z,1.90
2018-07-23T11:58:19.576Z,2.00
2018-07-23T12:00:53.759Z,1.83
2018-07-23T12:03:25.492Z,2.10
2018-07-23T12:05:55.095Z,1.97
2018-07-23T12:08:25.620Z,1.77
2018-07-23T12:10:55.231Z,2.17
2018-07-23T12:13:24.839Z,2.23
2018-07-23T12:15:54.439Z,2.00
2018-07-23T12:18:24.195Z,1.93
2018-07-23T12:20:53.744Z,2.40
2018-07-23T12:23:23.321Z,2.20
2018-07-23T12:25:53.156Z,2.00
2018-07-23T12:28:22.908Z,2.23
2018-07-23T12:30:54.338Z,2.00
2018-07-23T12:33:24.000Z,2.00
2018-07-23T12:35:53.602Z,2.70
2018-07-23T12:38:23.193Z,2.40
2018-07-23T12:40:52.857Z,2.33
2018-07-23T12:43:22.454Z,1.90
2018-07-23T12:45:52.045Z,2.30
2018-07-23T12:48:21.680Z,2.40
2018-07-23T12:50:51.248Z,1.93
2018-07-23T12:53:20.827Z,2.13
2018-07-23T12:55:50.385Z,2.20
2018-07-23T12:58:19.996Z,2.33
2018-07-23T13:00:49.554Z,2.47
2018-07-23T13:03:19.161Z,2.07
2018-07-23T13:05:48.716Z,1.87
2018-07-23T13:08:18.287Z,2.30
2018-07-23T13:10:47.855Z,2.07
2018-07-23T13:13:17.428Z,2.00
2018-07-23T13:15:46.990Z,2.10
2018-07-23T13:18:16.609Z,2.17
2018-07-23T13:20:46.195Z,2.20
2018-07-23T13:23:15.802Z,2.17
2018-07-23T13:25:45.477Z,2.10
2018-07-23T13:28:15.084Z,1.98
2018-07-23T13:30:45.132Z,2.45
2018-07-23T13:33:14.725Z,1.82
2018-07-23T13:35:44.317Z,1.72
2018-07-23T13:38:13.988Z,1.80
2018-07-23T13:40:43.515Z,1.90
2018-07-23T13:43:13.136Z,1.92
2018-07-23T13:45:43.366Z,1.80
2018-07-23T13:48:13.014Z,2.37
2018-07-23T13:50:42.624Z,1.80
2018-07-23T13:53:12.894Z,2.00
2018-07-23T13:55:42.516Z,2.20
2018-07-23T13:58:13.020Z,2.33
2018-07-23T14:00:43.653Z,2.20
2018-07-23T14:03:13.404Z,1.90
2018-07-23T14:05:42.967Z,2.03
2018-07-23T14:08:13.487Z,1.90
2018-07-23T14:10:43.061Z,1.70
2018-07-23T14:13:13.273Z,1.70
2018-07-23T14:15:43.622Z,1.70
2018-07-23T14:18:14.055Z,2.10
2018-07-23T14:20:43.609Z,2.10
2018-07-23T14:23:14.062Z,2.03
2018-07-23T14:25:43.676Z,2.00
2018-07-23T14:28:13.959Z,2.17
2018-07-23T14:30:43.922Z,2.07
2018-07-23T14:33:14.522Z,2.07
2018-07-23T14:35:44.107Z,2.20
2018-07-23T14:38:14.651Z,2.00
2018-07-23T14:40:44.228Z,1.57
2018-07-23T14:43:14.792Z,2.10
2018-07-23T14:45:44.472Z,1.90
2018-07-23T14:48:15.446Z,2.27
2018-07-23T14:50:45.172Z,1.73
2018-07-23T14:53:15.754Z,2.10
2018-07-23T14:55:45.391Z,2.00
2018-07-23T14:58:15.968Z,1.97
2018-07-23T15:00:45.575Z,2.37
2018-07-23T15:03:16.042Z,2.17
2018-07-23T15:05:45.606Z,2.00
2018-07-23T15:08:16.302Z,2.10
2018-07-23T15:10:45.871Z,2.30
2018-07-23T15:13:16.472Z,2.60
2018-07-23T15:15:46.706Z,2.33
2018-07-23T15:18:17.234Z,2.43
2018-07-23T15:20:46.876Z,2.37
2018-07-23T15:23:17.432Z,2.67
2018-07-23T15:25:47.011Z,2.63
2018-07-23T15:28:17.266Z,2.73
2018-07-23T15:30:46.833Z,2.50
2018-07-23T15:33:17.742Z,2.27
2018-07-23T15:35:46.995Z,2.37
2018-07-23T15:38:17.079Z,2.47
2018-07-23T15:40:46.647Z,2.30
2018-07-23T15:43:17.361Z,2.10
2018-07-23T15:45:47.129Z,2.30
2018-07-23T15:48:17.804Z,2.30
2018-07-23T15:50:47.376Z,2.70
2018-07-23T15:53:17.997Z,2.80
2018-07-23T15:55:47.616Z,2.67
2018-07-23T15:58:18.112Z,2.27
2018-07-23T16:00:47.678Z,2.60
2018-07-23T16:03:18.161Z,2.80
2018-07-23T16:05:47.690Z,2.73
2018-07-23T16:08:17.929Z,2.27
2018-07-23T16:10:47.513Z,2.43
2018-07-23T16:13:18.105Z,2.40
2018-07-23T16:15:47.656Z,2.30
2018-07-23T16:18:18.187Z,2.60
2018-07-23T16:20:47.727Z,2.73
2018-07-23T16:23:18.027Z,2.70
2018-07-23T16:25:47.637Z,2.73
2018-07-23T16:28:17.538Z,2.70
2018-07-23T16:30:47.155Z,2.60
2018-07-23T16:33:17.254Z,2.70
2018-07-23T16:35:46.912Z,2.47
2018-07-23T16:38:16.738Z,2.83
2018-07-23T16:40:46.303Z,2.50
2018-07-23T16:43:15.986Z,2.93
2018-07-23T16:45:45.511Z,2.70
2018-07-23T16:48:15.030Z,2.40
2018-07-23T16:50:44.693Z,2.33
2018-07-23T16:53:14.271Z,2.63
2018-07-23T16:55:43.841Z,2.80
2018-07-23T16:58:13.516Z,3.10
2018-07-23T17:00:43.665Z,2.90
2018-07-23T17:03:13.354Z,3.13
2018-07-23T17:05:45.793Z,3.00
2018-07-23T17:08:16.456Z,3.07
2018-07-23T17:10:46.040Z,2.93
2018-07-23T17:13:15.563Z,2.87
2018-07-23T17:15:45.104Z,3.23
2018-07-23T17:18:14.765Z,3.63
2018-07-23T17:20:44.364Z,3.70
2018-07-23T17:23:13.995Z,3.70
2018-07-23T17:25:43.548Z,3.57
2018-07-23T17:28:13.148Z,3.70
2018-07-23T17:30:43.245Z,3.03
2018-07-23T17:33:12.817Z,3.17
2018-07-23T17:35:42.432Z,3.67
2018-07-23T17:38:11.690Z,3.40
2018-07-23T17:40:41.303Z,3.80
2018-07-23T17:43:10.947Z,3.47
2018-07-23T17:45:42.336Z,2.97
2018-07-23T17:48:11.905Z,3.13
2018-07-23T17:50:41.482Z,3.47
2018-07-23T17:53:11.087Z,3.23
2018-07-23T17:55:40.733Z,3.50
2018-07-23T17:58:10.303Z,3.20
2018-07-23T18:00:40.804Z,3.30
2018-07-23T18:03:10.453Z,3.20
2018-07-23T18:05:40.088Z,2.90
2018-07-23T18:08:09.870Z,3.63
2018-07-23T18:10:39.624Z,3.37
2018-07-23T18:13:09.652Z,3.77
2018-07-23T18:15:40.540Z,3.23
2018-07-23T18:18:09.943Z,3.23
2018-07-23T18:20:39.595Z,2.67
2018-07-23T18:23:09.205Z,2.97
2018-07-23T18:25:38.554Z,2.37
2018-07-23T18:28:08.256Z,3.47
2018-07-23T18:30:38.781Z,2.70
2018-07-23T18:33:08.506Z,2.73
2018-07-23T18:35:38.526Z,2.90
2018-07-23T18:38:08.183Z,2.73
2018-07-23T18:40:37.833Z,2.67
2018-07-23T18:43:08.040Z,2.63
2018-07-23T18:45:38.720Z,2.70
2018-07-23T18:48:26.052Z,2.47
2018-07-23T18:50:55.709Z,2.57
2018-07-23T18:53:26.152Z,2.70
2018-07-23T18:55:55.758Z,3.03
2018-07-23T18:58:25.446Z,2.93
2018-07-23T19:00:55.027Z,3.77
2018-07-23T19:03:25.141Z,5.13
2018-07-23T19:05:54.755Z,3.57
2018-07-23T19:08:24.774Z,3.60
2018-07-23T19:10:54.401Z,4.03
2018-07-23T19:13:23.978Z,3.33
2018-07-23T19:15:53.562Z,3.33
2018-07-23T19:18:23.224Z,2.67
2018-07-23T19:20:52.843Z,3.30
2018-07-23T19:23:22.204Z,3.60
2018-07-23T19:25:59.063Z,3.17
2018-07-23T19:28:37.813Z,3.13
2018-07-23T19:31:08.405Z,3.10
2018-07-23T19:33:38.893Z,3.10
2018-07-23T19:36:08.179Z,3.20
2018-07-23T19:38:38.186Z,3.13
2018-07-23T19:41:08.794Z,2.90
2018-07-23T19:43:40.065Z,3.43
2018-07-23T19:46:10.484Z,6.77
2018-07-23T19:48:43.551Z,10.97
2018-07-23T19:51:14.851Z,4.03
2018-07-23T19:53:44.662Z,7.47
2018-07-23T19:56:14.799Z,8.37
2018-07-23T19:58:48.059Z,7.20
2018-07-23T20:01:17.991Z,6.83
2018-07-23T20:03:48.130Z,4.43
2018-07-23T20:06:22.629Z,4.07
2018-07-23T20:08:53.405Z,4.23
2018-07-23T20:11:23.875Z,4.00
2018-07-23T20:13:53.589Z,3.97
2018-07-23T20:16:23.276Z,3.83
2018-07-23T20:18:54.506Z,4.10
2018-07-23T20:21:24.173Z,3.73
2018-07-23T20:23:53.884Z,3.50
2018-07-23T20:26:23.510Z,4.03
2018-07-23T20:28:55.136Z,3.70
2018-07-23T20:31:26.941Z,3.97
2018-07-23T20:33:56.633Z,3.73
2018-07-23T20:36:34.572Z,3.70
2018-07-23T20:39:06.262Z,3.47
2018-07-23T20:41:36.181Z,3.30
2018-07-23T20:44:05.912Z,3.27
2018-07-23T20:46:35.799Z,3.57
2018-07-23T20:49:05.958Z,3.40
2018-07-23T20:51:36.262Z,3.37
2018-07-23T20:54:06.055Z,4.17
2018-07-23T20:56:36.121Z,3.57
2018-07-23T20:59:05.918Z,4.30
2018-07-23T21:01:35.901Z,3.93
2018-07-23T21:04:05.968Z,3.77
2018-07-23T21:06:35.655Z,3.80
2018-07-23T21:09:07.421Z,3.30
2018-07-23T21:11:37.363Z,3.43
2018-07-23T21:14:07.069Z,3.70
2018-07-23T21:16:36.880Z,3.57
2018-07-23T21:19:07.378Z,3.30
2018-07-23T21:21:37.935Z,3.70
2018-07-23T21:24:11.619Z,3.40
2018-07-23T21:26:41.852Z,3.90
2018-07-23T21:29:11.999Z,3.90
2018-07-23T21:31:41.820Z,3.80
2018-07-23T21:34:11.303Z,4.20
2018-07-23T21:36:42.891Z,3.63
2018-07-23T21:39:12.646Z,3.77
2018-07-23T21:41:43.204Z,4.30
2018-07-23T21:44:13.060Z,4.07
2018-07-23T21:46:42.841Z,4.10
2018-07-23T21:49:15.066Z,3.83
2018-07-23T21:51:45.107Z,4.07
2018-07-23T21:54:14.781Z,4.30
2018-07-23T21:56:44.524Z,4.30
2018-07-23T21:59:14.166Z,4.83
2018-07-23T22:01:44.418Z,4.07
2018-07-23T22:04:14.796Z,5.00
2018-07-23T22:06:46.096Z,4.60
2018-07-23T22:09:15.898Z,3.90
2018-07-23T22:11:45.774Z,4.60
2018-07-23T22:14:16.209Z,4.80
2018-07-23T22:16:45.838Z,4.87
2018-07-23T22:19:15.912Z,5.47
2018-07-23T22:21:47.437Z,5.00
2018-07-23T22:24:17.192Z,5.80
2018-07-23T22:26:47.065Z,5.47
2018-07-23T22:29:17.062Z,5.60
2018-07-23T22:31:46.945Z,5.37
2018-07-23T22:34:16.916Z,5.50
2018-07-23T22:36:46.552Z,4.80
2018-07-23T22:39:16.162Z,5.13
2018-07-23T22:41:46.030Z,5.00
2018-07-23T22:44:15.590Z,5.23
2018-07-23T22:46:45.587Z,5.13
2018-07-23T22:49:15.187Z,5.03
2018-07-23T22:51:45.235Z,5.10
2018-07-23T22:54:14.763Z,4.90
2018-07-23T22:56:44.854Z,5.07
2018-07-23T22:59:14.506Z,5.27
2018-07-23T23:01:44.942Z,5.00
2018-07-23T23:04:14.448Z,5.23
2018-07-23T23:06:45.639Z,4.70
2018-07-23T23:09:15.150Z,5.03
2018-07-23T23:11:45.440Z,5.37
2018-07-23T23:14:14.956Z,4.93
2018-07-23T23:16:45.083Z,4.90
2018-07-23T23:19:14.663Z,5.23
2018-07-23T23:21:44.743Z,4.87
2018-07-23T23:24:14.524Z,4.93
2018-07-23T23:26:44.983Z,5.23
2018-07-23T23:29:14.772Z,5.10
2018-07-23T23:31:45.100Z,5.13
2018-07-23T23:34:14.655Z,4.80
2018-07-23T23:36:44.934Z,5.20
2018-07-23T23:39:14.497Z,4.97
2018-07-23T23:41:44.340Z,4.67
2018-07-23T23:44:13.935Z,5.03
2018-07-23T23:46:43.578Z,5.50
2018-07-23T23:49:13.162Z,5.10
2018-07-23T23:51:43.669Z,5.60
2018-07-23T23:54:13.302Z,5.57
2018-07-23T23:56:42.972Z,5.40
2018-07-23T23:59:12.532Z,6.07
